Time;durP1;ratioP1;P1;durP2;ratioP2;P2;SDS_P1;SDS_P2;PMS_P1;PMS_P2;Temp;Humidity;BMP_temperature;BMP_pressure;BME280_temperature;BME280_humidity;BME280_pressure;Samples;Min_cycle;Max_cycle;Signal;HPM_P1;HPM_P2
2022/10/22 00:00:32;;;;;;;23.08;18.20;;;18.50;1.00;;;;;;5053205;28;20036;-61
2022/10/22 00:02:57;;;;;;;23.30;19.90;;;18.50;1.00;;;;;;5054648;28;20025;-61
2022/10/22 00:05:23;;;;;;;22.67;18.42;;;18.50;1.00;;;;;;5051503;28;20086;-61
2022/10/22 00:07:49;;;;;;;22.15;18.45;;;18.50;1.00;;;;;;5054080;28;20374;-61
2022/10/22 00:10:16;;;;;;;26.98;18.73;;;18.50;1.00;;;;;;5053250;28;20035;-61
2022/10/22 00:12:42;;;;;;;25.65;18.98;;;18.50;1.00;;;;;;5054323;28;20025;-61
2022/10/22 00:15:08;;;;;;;22.23;18.70;;;18.50;1.00;;;;;;5051764;28;20129;-62
2022/10/22 00:17:34;;;;;;;23.85;18.52;;;18.50;1.00;;;;;;5045722;28;20028;-61
2022/10/22 00:20:00;;;;;;;22.95;18.92;;;18.50;1.00;;;;;;5050469;28;20029;-61
2022/10/22 00:22:26;;;;;;;21.90;19.40;;;18.50;1.00;;;;;;5053896;28;20025;-61
2022/10/22 00:24:51;;;;;;;23.33;17.38;;;18.50;1.00;;;;;;5053054;28;20036;-61
2022/10/22 00:27:17;;;;;;;22.85;18.50;;;18.60;1.00;;;;;;5046398;28;20013;-61
2022/10/22 00:29:42;;;;;;;21.60;18.42;;;18.60;1.00;;;;;;5050906;28;20394;-61
2022/10/22 00:32:08;;;;;;;22.23;18.80;;;18.60;1.00;;;;;;5053924;28;20155;-61
2022/10/22 00:34:34;;;;;;;25.98;18.70;;;18.50;1.00;;;;;;5052810;28;20031;-61
2022/10/22 00:36:59;;;;;;;21.58;17.80;;;18.50;1.00;;;;;;5044151;28;20087;-61
2022/10/22 00:39:26;;;;;;;21.38;18.67;;;18.50;1.00;;;;;;5053298;28;20064;-61
2022/10/22 00:41:55;;;;;;;20.88;17.67;;;18.50;1.00;;;;;;5052419;28;20036;-61
2022/10/22 00:44:58;;;;;;;23.05;18.10;;;18.50;1.00;;;;;;5039272;28;20566;-61
2022/10/22 00:47:26;;;;;;;22.27;18.50;;;18.60;1.00;;;;;;5043996;28;20041;-61
2022/10/22 00:49:54;;;;;;;22.70;18.67;;;18.60;1.00;;;;;;5050547;28;20386;-61
2022/10/22 00:52:20;;;;;;;21.90;17.77;;;18.70;1.00;;;;;;5036527;28;20041;-61
2022/10/22 00:54:46;;;;;;;24.67;18.40;;;18.50;1.00;;;;;;5049741;28;20025;-61
2022/10/22 00:57:12;;;;;;;22.30;18.30;;;18.60;1.00;;;;;;5053634;28;20033;-61
2022/10/22 00:59:38;;;;;;;24.67;18.58;;;18.60;1.00;;;;;;5052586;28;20502;-60
2022/10/22 01:02:03;;;;;;;20.65;16.88;;;18.60;1.00;;;;;;5051906;28;20083;-61
2022/10/22 01:04:29;;;;;;;24.85;18.67;;;18.60;1.00;;;;;;5051691;28;20033;-61
2022/10/22 01:06:55;;;;;;;27.55;18.65;;;18.60;1.00;;;;;;5041678;28;20087;-61
2022/10/22 01:09:41;;;;;;;24.23;18.17;;;18.60;1.00;;;;;;5050078;28;20033;-61
2022/10/22 01:12:27;;;;;;;25.42;18.63;;;18.50;1.00;;;;;;5053176;28;20029;-61
2022/10/22 01:15:06;;;;;;;23.40;18.05;;;18.50;1.00;;;;;;5051709;28;20094;-62
2022/10/22 01:17:39;;;;;;;23.45;18.42;;;18.60;1.00;;;;;;5048240;28;20087;-61
2022/10/22 01:20:22;;;;;;;21.92;17.50;;;18.60;1.00;;;;;;5038593;28;20041;-61
2022/10/22 01:22:57;;;;;;;31.48;19.13;;;18.60;1.00;;;;;;5053159;28;20033;-61
2022/10/22 01:25:44;;;;;;;23.23;17.67;;;18.50;1.00;;;;;;5051880;28;20470;-61
2022/10/22 01:28:56;;;;;;;22.17;17.67;;;18.60;1.00;;;;;;5052773;28;20497;-61
2022/10/22 01:31:25;;;;;;;23.23;16.77;;;18.60;1.00;;;;;;5052354;28;20036;-61
2022/10/22 01:33:53;;;;;;;23.85;17.08;;;18.60;1.00;;;;;;5052319;28;20486;-61
2022/10/22 01:36:20;;;;;;;21.30;17.95;;;18.60;1.00;;;;;;5051855;28;20032;-61
2022/10/22 01:38:48;;;;;;;22.05;17.58;;;18.60;1.00;;;;;;5052546;28;20116;-61
2022/10/22 01:41:14;;;;;;;21.38;17.15;;;18.50;1.00;;;;;;5051883;28;20021;-61
2022/10/22 01:43:40;;;;;;;22.42;17.85;;;18.60;1.00;;;;;;5047670;28;20052;-61
2022/10/22 01:46:08;;;;;;;24.20;16.52;;;18.60;1.00;;;;;;5050446;28;20029;-61
2022/10/22 01:48:41;;;;;;;22.50;16.80;;;18.60;1.00;;;;;;5049191;28;20033;-61
2022/10/22 01:51:18;;;;;;;19.65;17.42;;;18.70;1.00;;;;;;5052096;28;20037;-61
2022/10/22 01:53:50;;;;;;;18.85;16.75;;;18.70;1.00;;;;;;5052837;28;20037;-61
2022/10/22 01:56:24;;;;;;;24.35;17.02;;;18.70;1.00;;;;;;5051226;28;20398;-61
2022/10/22 01:59:04;;;;;;;19.92;17.65;;;18.60;1.00;;;;;;5049750;28;20043;-61
2022/10/22 02:01:53;;;;;;;19.35;16.10;;;18.60;1.00;;;;;;5051932;28;20027;-61
2022/10/22 02:04:31;;;;;;;22.92;18.02;;;18.70;1.00;;;;;;5051904;28;20040;-61
2022/10/22 02:07:00;;;;;;;26.08;17.55;;;18.70;1.00;;;;;;5050479;28;20025;-61
2022/10/22 02:09:28;;;;;;;26.02;18.10;;;18.60;1.00;;;;;;5047070;28;20032;-61
2022/10/22 02:11:54;;;;;;;22.33;16.77;;;18.70;1.00;;;;;;5047240;28;20083;-61
2022/10/22 02:14:20;;;;;;;20.95;16.52;;;18.70;1.00;;;;;;5052144;28;20507;-61
2022/10/22 02:16:49;;;;;;;20.00;17.27;;;18.70;1.00;;;;;;5046528;28;20022;-61
2022/10/22 02:19:26;;;;;;;20.80;15.60;;;18.70;1.00;;;;;;5048400;28;20521;-61
2022/10/22 02:21:53;;;;;;;20.02;16.98;;;18.70;1.00;;;;;;5051852;28;20032;-61
2022/10/22 02:24:20;;;;;;;19.83;16.90;;;18.70;1.00;;;;;;5052145;28;20029;-61
2022/10/22 02:26:56;;;;;;;19.48;17.02;;;18.70;1.00;;;;;;5051266;28;20017;-61
2022/10/22 02:29:29;;;;;;;19.67;16.42;;;18.70;1.00;;;;;;5050271;28;20032;-61
2022/10/22 02:31:57;;;;;;;25.00;17.92;;;18.80;1.00;;;;;;5040193;28;20104;-61
2022/10/22 02:34:27;;;;;;;19.42;15.77;;;18.80;1.00;;;;;;5051608;28;20063;-61
2022/10/22 02:36:53;;;;;;;18.88;16.17;;;18.70;1.00;;;;;;5051410;28;20045;-61
2022/10/22 02:39:20;;;;;;;22.35;16.13;;;18.80;1.00;;;;;;5052390;28;20033;-61
2022/10/22 02:41:46;;;;;;;19.52;16.38;;;18.80;1.00;;;;;;5065030;28;20108;-61
2022/10/22 02:44:12;;;;;;;19.17;16.48;;;18.80;1.00;;;;;;5051799;28;20124;-61
2022/10/22 02:46:38;;;;;;;18.17;15.90;;;18.80;1.00;;;;;;5055151;28;20104;-61
2022/10/22 02:49:03;;;;;;;22.65;16.90;;;18.70;1.00;;;;;;5055824;28;20025;-61
2022/10/22 02:51:29;;;;;;;20.45;16.38;;;18.70;1.00;;;;;;5054482;28;20025;-61
2022/10/22 02:53:55;;;;;;;21.00;16.23;;;18.70;1.00;;;;;;5055911;28;20063;-62
2022/10/22 02:56:20;;;;;;;26.33;16.73;;;18.70;1.00;;;;;;5054844;28;20055;-61
2022/10/22 02:58:46;;;;;;;22.23;15.52;;;18.70;1.00;;;;;;5054754;28;20029;-61
2022/10/22 03:01:11;;;;;;;22.20;17.40;;;18.70;1.00;;;;;;5056330;28;20025;-61
2022/10/22 03:03:37;;;;;;;20.00;15.80;;;18.70;1.00;;;;;;5054730;28;20482;-61
2022/10/22 03:06:03;;;;;;;22.65;16.50;;;18.70;1.00;;;;;;5055727;28;20035;-61
2022/10/22 03:08:28;;;;;;;20.52;15.80;;;18.80;1.00;;;;;;5048686;28;20470;-61
2022/10/22 03:10:54;;;;;;;22.85;16.05;;;18.80;1.00;;;;;;5055407;28;20024;-61
2022/10/22 03:13:19;;;;;;;24.30;16.30;;;18.80;1.00;;;;;;5054245;28;20096;-61
2022/10/22 03:15:48;;;;;;;22.25;14.88;;;18.80;1.00;;;;;;5055050;28;20056;-61
2022/10/22 03:18:13;;;;;;;20.42;16.17;;;18.80;1.00;;;;;;5054485;28;20047;-61
2022/10/22 03:20:39;;;;;;;20.48;15.57;;;18.80;1.00;;;;;;5055572;28;20533;-61
2022/10/22 03:23:05;;;;;;;22.38;16.08;;;18.80;1.00;;;;;;5048650;28;20032;-61
2022/10/22 03:25:33;;;;;;;18.13;15.75;;;18.80;1.00;;;;;;5055108;28;20108;-61
2022/10/22 03:28:03;;;;;;;20.80;16.67;;;18.80;1.00;;;;;;5054096;28;20052;-61
2022/10/22 03:30:28;;;;;;;19.42;16.25;;;18.80;1.00;;;;;;5055125;28;20032;-61
2022/10/22 03:32:54;;;;;;;23.42;16.75;;;18.70;1.00;;;;;;5045571;28;20379;-61
2022/10/22 03:35:20;;;;;;;21.23;16.33;;;18.80;1.00;;;;;;5055106;28;20096;-62
2022/10/22 03:37:45;;;;;;;17.90;15.73;;;18.90;1.00;;;;;;5051678;28;20063;-62
2022/10/22 03:40:12;;;;;;;20.73;15.60;;;18.90;1.00;;;;;;5055096;28;20029;-61
2022/10/22 03:42:40;;;;;;;21.95;15.45;;;18.90;1.00;;;;;;5054069;28;20309;-61
2022/10/22 03:45:06;;;;;;;18.83;16.33;;;18.90;1.00;;;;;;5054787;28;20025;-61
2022/10/22 03:47:32;;;;;;;19.42;15.77;;;18.80;1.00;;;;;;5049791;28;20025;-61
2022/10/22 03:49:58;;;;;;;21.00;17.13;;;18.80;1.00;;;;;;5054755;28;20028;-61
2022/10/22 03:52:23;;;;;;;20.02;16.52;;;18.80;1.00;;;;;;5047880;28;20025;-61
2022/10/22 03:54:49;;;;;;;22.17;16.45;;;18.70;1.00;;;;;;5048093;28;20116;-61
2022/10/22 03:57:15;;;;;;;23.48;15.63;;;18.70;1.00;;;;;;5053337;28;20047;-61
2022/10/22 03:59:43;;;;;;;20.23;15.88;;;18.80;1.00;;;;;;5054746;28;20040;-62
2022/10/22 04:02:09;;;;;;;24.73;16.05;;;18.80;1.00;;;;;;5053605;28;20109;-61
2022/10/22 04:04:35;;;;;;;21.45;16.33;;;18.70;1.00;;;;;;5054840;28;20139;-61
2022/10/22 04:07:01;;;;;;;20.40;16.50;;;18.80;1.00;;;;;;5053310;28;20906;-61
2022/10/22 04:09:29;;;;;;;23.17;17.27;;;18.80;1.00;;;;;;5054101;28;20037;-61
2022/10/22 04:11:55;;;;;;;22.00;16.58;;;18.80;1.00;;;;;;5053346;28;20051;-61
2022/10/22 04:14:20;;;;;;;20.10;16.13;;;18.70;1.00;;;;;;5052229;28;20028;-60
2022/10/22 04:16:46;;;;;;;24.13;17.45;;;18.80;1.00;;;;;;5052479;28;20036;-61
2022/10/22 04:19:12;;;;;;;20.58;15.55;;;18.80;1.00;;;;;;5053444;28;20048;-61
2022/10/22 04:21:38;;;;;;;18.30;15.95;;;18.70;1.00;;;;;;5057153;28;20029;-61
2022/10/22 04:24:04;;;;;;;23.58;17.48;;;18.70;1.00;;;;;;5048888;28;20123;-61
2022/10/22 04:26:29;;;;;;;23.98;16.35;;;18.70;1.00;;;;;;5053824;28;20498;-61
2022/10/22 04:28:55;;;;;;;25.70;16.65;;;18.70;1.00;;;;;;5052955;28;20028;-61
2022/10/22 04:31:23;;;;;;;23.45;16.50;;;18.70;1.00;;;;;;5053710;28;20043;-61
2022/10/22 04:33:56;;;;;;;19.65;15.48;;;18.70;1.00;;;;;;5046727;28;20033;-61
2022/10/22 04:36:22;;;;;;;26.65;17.05;;;18.80;1.00;;;;;;5053645;28;20033;-61
2022/10/22 04:39:01;;;;;;;19.15;16.17;;;18.70;1.00;;;;;;5048743;28;20394;-61
2022/10/22 04:41:33;;;;;;;22.83;17.63;;;18.70;1.00;;;;;;5065978;28;20032;-61
2022/10/22 04:43:59;;;;;;;20.08;16.60;;;18.70;1.00;;;;;;5052743;28;20375;-61
2022/10/22 04:53:09;;;;;;;23.63;15.13;;;18.80;1.00;;;;;;5050453;28;20486;-61
2022/10/22 04:55:34;;;;;;;22.45;16.55;;;18.80;1.00;;;;;;5053460;28;20025;-61
2022/10/22 04:58:00;;;;;;;21.83;16.85;;;18.80;1.00;;;;;;5053460;28;20175;-61
2022/10/22 05:00:26;;;;;;;23.15;16.60;;;18.90;1.00;;;;;;5044014;28;20503;-61
2022/10/22 05:02:52;;;;;;;19.60;17.10;;;18.80;1.00;;;;;;5052159;28;20130;-61
2022/10/22 05:05:17;;;;;;;19.90;15.45;;;18.90;1.00;;;;;;5052145;28;20052;-61
2022/10/22 05:07:43;;;;;;;19.20;15.90;;;18.90;1.00;;;;;;5052491;28;20100;-61
2022/10/22 05:10:09;;;;;;;19.58;16.15;;;18.80;1.00;;;;;;5052105;28;20706;-61
2022/10/22 05:12:34;;;;;;;18.98;16.33;;;18.80;1.00;;;;;;5053277;28;20021;-61
2022/10/22 05:15:00;;;;;;;21.92;17.38;;;18.80;1.00;;;;;;5051840;28;20126;-61
2022/10/22 05:17:26;;;;;;;21.80;16.58;;;18.80;1.00;;;;;;5051478;28;20053;-61
2022/10/22 05:19:51;;;;;;;24.63;15.98;;;18.80;1.00;;;;;;5049956;28;20049;-61
2022/10/22 05:22:17;;;;;;;22.65;17.33;;;18.80;1.00;;;;;;5052991;28;20017;-61
2022/10/22 05:24:42;;;;;;;19.20;16.02;;;18.80;1.00;;;;;;5051751;28;20501;-61
2022/10/22 05:27:08;;;;;;;17.52;15.68;;;18.80;1.00;;;;;;5043620;28;20021;-62
2022/10/22 05:29:34;;;;;;;20.30;16.50;;;18.80;1.00;;;;;;5054159;28;20029;-61
2022/10/22 05:31:59;;;;;;;21.00;16.60;;;18.90;1.00;;;;;;5052921;28;20033;-61
2022/10/22 05:34:25;;;;;;;20.23;16.63;;;18.80;1.00;;;;;;5051598;28;20029;-61
2022/10/22 05:36:50;;;;;;;21.17;16.65;;;18.90;1.00;;;;;;5052070;28;20075;-61
2022/10/22 05:39:16;;;;;;;20.38;16.67;;;18.80;1.00;;;;;;5049854;28;20062;-61
2022/10/22 05:41:42;;;;;;;23.15;16.90;;;18.80;1.00;;;;;;5049922;28;20458;-61
2022/10/22 05:44:10;;;;;;;21.35;17.05;;;18.70;1.00;;;;;;5051807;28;20025;-61
2022/10/22 05:46:36;;;;;;;22.00;16.58;;;18.80;1.00;;;;;;5052704;28;20025;-61
2022/10/22 05:49:04;;;;;;;19.98;16.40;;;18.70;1.00;;;;;;5051859;28;20103;-61
2022/10/22 05:51:34;;;;;;;23.70;17.80;;;18.70;1.00;;;;;;5051331;28;20479;-61
2022/10/22 05:54:01;;;;;;;22.80;16.60;;;18.80;1.00;;;;;;5052348;28;20115;-61
2022/10/22 05:56:29;;;;;;;19.98;16.52;;;18.80;1.00;;;;;;5040736;28;20036;-62
2022/10/22 05:58:55;;;;;;;22.13;17.15;;;18.80;1.00;;;;;;5050517;28;20032;-61
2022/10/22 06:01:24;;;;;;;22.15;17.52;;;18.80;1.00;;;;;;5050829;28;20029;-61
2022/10/22 06:03:53;;;;;;;22.83;17.83;;;18.80;1.00;;;;;;5052385;28;20029;-61
2022/10/22 06:06:20;;;;;;;22.02;17.70;;;18.90;1.00;;;;;;5051456;28;20474;-56
2022/10/22 06:08:48;;;;;;;20.20;16.38;;;18.80;1.00;;;;;;5052250;28;20022;-57
2022/10/22 06:11:16;;;;;;;25.48;18.13;;;18.80;1.00;;;;;;5051460;28;20116;-57
2022/10/22 06:13:43;;;;;;;21.13;16.58;;;18.80;1.00;;;;;;5052852;28;20386;-57
2022/10/22 06:16:09;;;;;;;20.52;16.10;;;18.80;1.00;;;;;;5050512;28;20049;-57
2022/10/22 06:18:34;;;;;;;21.20;16.48;;;18.70;1.00;;;;;;5052576;28;20490;-57
2022/10/22 06:21:14;;;;;;;19.77;16.30;;;18.80;1.00;;;;;;5054066;28;20025;-57
2022/10/22 06:23:40;;;;;;;24.33;17.33;;;18.80;1.00;;;;;;5048544;28;20044;-55
2022/10/22 06:26:07;;;;;;;19.85;16.65;;;18.80;1.00;;;;;;5044122;28;20040;-57
2022/10/22 06:28:33;;;;;;;18.95;15.75;;;18.90;1.00;;;;;;5042725;28;20036;-57
2022/10/22 06:31:01;;;;;;;21.20;16.42;;;18.90;1.00;;;;;;5046335;28;20025;-57
2022/10/22 06:33:28;;;;;;;23.25;17.17;;;18.90;1.00;;;;;;5068128;28;20417;-57
2022/10/22 06:35:54;;;;;;;22.35;17.15;;;18.90;1.00;;;;;;5055262;28;20040;-56
2022/10/22 06:38:19;;;;;;;23.50;17.75;;;18.90;1.00;;;;;;5055838;28;20021;-55
2022/10/22 06:40:45;;;;;;;19.45;16.00;;;18.90;1.00;;;;;;5054995;28;20039;-57
2022/10/22 06:43:12;;;;;;;21.20;17.08;;;18.90;1.00;;;;;;5056125;28;20471;-56
2022/10/22 06:45:38;;;;;;;19.00;15.90;;;18.90;1.00;;;;;;5054880;28;20127;-55
2022/10/22 06:48:03;;;;;;;25.23;17.45;;;18.90;1.00;;;;;;5062143;28;20478;-55
2022/10/22 06:50:29;;;;;;;20.92;17.33;;;18.90;1.00;;;;;;5054854;28;20060;-56
2022/10/22 06:52:55;;;;;;;23.15;16.98;;;18.90;1.00;;;;;;5046620;28;20018;-55
2022/10/22 06:55:21;;;;;;;20.60;16.10;;;18.90;1.00;;;;;;5046862;28;20155;-56
2022/10/22 06:57:46;;;;;;;23.38;17.13;;;18.90;1.00;;;;;;5051294;28;20466;-54
2022/10/22 07:00:13;;;;;;;23.58;16.42;;;18.90;1.00;;;;;;5054106;28;20095;-56
2022/10/22 07:02:38;;;;;;;19.80;16.00;;;18.90;1.00;;;;;;5054054;28;20021;-56
2022/10/22 07:05:04;;;;;;;21.85;16.23;;;19.00;1.00;;;;;;5054352;28;20364;-53
2022/10/22 07:07:30;;;;;;;22.85;15.80;;;19.00;1.00;;;;;;5055188;28;20021;-57
2022/10/22 07:09:55;;;;;;;20.10;15.90;;;19.00;1.00;;;;;;5064872;28;20032;-56
2022/10/22 07:12:21;;;;;;;20.25;16.70;;;19.00;1.00;;;;;;5055551;28;20032;-56
2022/10/22 07:14:48;;;;;;;23.60;15.77;;;19.10;1.00;;;;;;5053891;28;20076;-57
2022/10/22 07:17:13;;;;;;;23.90;16.50;;;19.20;1.00;;;;;;5054293;28;20059;-55
2022/10/22 07:19:39;;;;;;;19.67;16.15;;;19.20;1.00;;;;;;5054029;28;20041;-56
2022/10/22 07:22:05;;;;;;;21.17;16.38;;;19.30;1.00;;;;;;5053777;28;20359;-56
2022/10/22 07:24:30;;;;;;;21.33;16.17;;;19.40;1.00;;;;;;5054558;28;20115;-56
2022/10/22 07:26:56;;;;;;;22.40;15.57;;;19.40;1.00;;;;;;5054906;28;20021;-55
2022/10/22 07:29:22;;;;;;;23.67;16.13;;;19.40;1.00;;;;;;5054986;28;20155;-56
2022/10/22 07:31:47;;;;;;;22.92;16.20;;;19.40;1.00;;;;;;5052473;28;20029;-56
2022/10/22 07:34:13;;;;;;;19.17;16.13;;;19.40;1.00;;;;;;5054902;28;20036;-56
2022/10/22 07:36:39;;;;;;;23.27;17.92;;;19.40;1.00;;;;;;5053824;28;20053;-57
2022/10/22 07:39:04;;;;;;;21.58;17.23;;;19.40;1.00;;;;;;5061743;28;20033;-56
2022/10/22 07:41:30;;;;;;;24.77;20.05;;;19.40;1.00;;;;;;5056032;28;20080;-55
2022/10/22 07:43:56;;;;;;;23.10;19.20;;;19.40;1.00;;;;;;5053705;28;20115;-56
2022/10/22 07:46:22;;;;;;;22.42;19.45;;;19.40;1.00;;;;;;5053414;28;20483;-56
2022/10/22 07:48:48;;;;;;;29.23;20.05;;;19.40;1.00;;;;;;5054623;28;20372;-55
2022/10/22 07:51:14;;;;;;;25.25;20.02;;;19.40;1.00;;;;;;5053538;28;20066;-55
2022/10/22 07:53:40;;;;;;;23.20;19.52;;;19.40;1.00;;;;;;5054468;28;20043;-55
2022/10/22 07:56:06;;;;;;;26.02;20.48;;;19.40;1.00;;;;;;5053475;28;20191;-51
2022/10/22 07:58:31;;;;;;;23.23;19.65;;;19.40;1.00;;;;;;5054479;28;20036;-55
2022/10/22 08:01:01;;;;;;;24.88;19.83;;;19.40;1.00;;;;;;5053496;28;20025;-54
2022/10/22 08:03:28;;;;;;;27.45;20.40;;;19.40;1.00;;;;;;5054025;28;20466;-55
2022/10/22 08:05:54;;;;;;;21.92;18.40;;;19.40;1.00;;;;;;5052781;28;20061;-62
2022/10/22 08:08:20;;;;;;;26.88;19.67;;;19.40;1.00;;;;;;5049680;28;20044;-61
2022/10/22 08:10:49;;;;;;;23.38;19.42;;;19.40;1.00;;;;;;5042606;28;20025;-61
2022/10/22 08:13:16;;;;;;;25.05;20.27;;;19.40;1.00;;;;;;5052766;28;20033;-61
2022/10/22 08:15:42;;;;;;;26.92;20.13;;;19.40;1.00;;;;;;5052255;28;20041;-61
2022/10/22 08:18:08;;;;;;;30.33;21.20;;;19.50;1.00;;;;;;5053691;28;20108;-62
2022/10/22 08:20:33;;;;;;;25.17;19.95;;;19.50;1.00;;;;;;5053320;28;20489;-61
2022/10/22 08:22:59;;;;;;;29.58;21.73;;;19.50;1.00;;;;;;5053899;28;20099;-62
2022/10/22 08:25:25;;;;;;;26.73;21.40;;;19.50;1.00;;;;;;5042206;28;20029;-61
2022/10/22 08:27:50;;;;;;;25.42;20.40;;;19.50;1.00;;;;;;5053543;28;20048;-62
2022/10/22 08:30:16;;;;;;;31.02;22.02;;;19.50;1.00;;;;;;5052829;28;20017;-59
2022/10/22 08:32:42;;;;;;;25.80;21.35;;;19.50;1.00;;;;;;5054159;28;20025;-62
2022/10/22 08:35:08;;;;;;;28.45;19.63;;;19.30;1.00;;;;;;5046047;28;20056;-50
2022/10/22 08:37:34;;;;;;;23.83;20.10;;;19.40;1.00;;;;;;5050904;28;20037;-48
2022/10/22 08:39:59;;;;;;;30.02;20.23;;;19.50;1.00;;;;;;5052430;28;20104;-51
2022/10/22 08:43:07;;;;;;;27.88;19.95;;;19.60;1.00;;;;;;5052931;28;20028;-57
2022/10/22 08:45:47;;;;;;;25.75;20.80;;;19.60;1.00;;;;;;5026877;28;20066;-61
2022/10/22 08:48:25;;;;;;;30.73;22.75;;;19.60;1.00;;;;;;5053237;28;20549;-65
2022/10/22 08:50:55;;;;;;;28.67;22.17;;;19.70;1.00;;;;;;5052261;28;20039;-59
2022/10/22 08:53:38;;;;;;;23.85;18.88;;;19.70;1.00;;;;;;5053288;28;20116;-60
2022/10/22 08:56:04;;;;;;;25.08;18.92;;;19.70;1.00;;;;;;5049409;28;20036;-60
2022/10/22 08:58:48;;;;;;;26.27;17.38;;;19.60;1.00;;;;;;5051869;28;20501;-60
2022/10/22 09:01:28;;;;;;;22.83;17.13;;;19.60;1.00;;;;;;5049397;28;20071;-60
2022/10/22 09:04:25;;;;;;;25.98;17.58;;;19.60;1.00;;;;;;5045746;28;20026;-60
2022/10/22 09:06:58;;;;;;;23.48;16.52;;;19.60;1.00;;;;;;5044022;28;20509;-60
2022/10/22 09:09:31;;;;;;;26.60;17.75;;;19.70;1.00;;;;;;5040723;28;20034;-61
2022/10/22 09:11:58;;;;;;;27.50;17.40;;;19.80;1.00;;;;;;5042824;28;20048;-62
2022/10/22 09:14:25;;;;;;;21.45;17.40;;;19.90;1.00;;;;;;5049274;28;20044;-60
2022/10/22 09:17:02;;;;;;;23.65;18.95;;;19.90;1.00;;;;;;5048201;28;20029;-61
2022/10/22 09:19:53;;;;;;;21.17;17.52;;;19.90;1.00;;;;;;5046636;28;20091;-61
2022/10/22 09:22:51;;;;;;;24.02;17.80;;;20.00;1.00;;;;;;5048970;28;20036;-61
2022/10/22 09:25:26;;;;;;;25.23;18.83;;;20.00;1.00;;;;;;5044904;28;20100;-62
2022/10/22 09:27:57;;;;;;;23.95;17.90;;;20.10;1.00;;;;;;5052663;28;20071;-61
2022/10/22 09:30:29;;;;;;;21.73;17.58;;;20.10;1.00;;;;;;5059706;28;20040;-61
2022/10/22 09:33:04;;;;;;;19.30;17.30;;;20.20;1.00;;;;;;5038644;28;20029;-61
2022/10/22 09:35:33;;;;;;;27.52;19.17;;;20.20;1.00;;;;;;5051320;28;20064;-61
2022/10/22 09:38:06;;;;;;;22.58;18.77;;;20.20;1.00;;;;;;5051327;28;20360;-61
2022/10/22 09:40:51;;;;;;;25.27;18.38;;;20.20;1.00;;;;;;5048709;28;20513;-60
2022/10/22 09:43:17;;;;;;;26.45;20.33;;;20.20;1.00;;;;;;5051220;28;20025;-60
2022/10/22 09:45:48;;;;;;;24.92;17.92;;;20.30;1.00;;;;;;5039230;28;20033;-60
2022/10/22 09:48:13;;;;;;;21.77;18.45;;;20.30;1.00;;;;;;5052175;28;20097;-61
2022/10/22 09:50:45;;;;;;;25.95;20.55;;;20.40;1.00;;;;;;5044338;28;20120;-60
2022/10/22 09:53:19;;;;;;;25.05;20.02;;;20.30;1.00;;;;;;5051681;28;20029;-61
2022/10/22 09:55:49;;;;;;;;;;;20.40;1.00;;;;;;5055094;28;20359;-60
2022/10/22 09:58:17;;;;;;;22.95;19.05;;;20.30;1.00;;;;;;5054604;28;19978;-59
2022/10/22 10:00:46;;;;;;;23.65;19.35;;;20.50;1.00;;;;;;5051744;28;20121;-59
2022/10/22 10:03:18;;;;;;;26.00;20.98;;;20.50;1.00;;;;;;5052797;28;20033;-59
2022/10/22 10:05:48;;;;;;;24.20;20.23;;;20.60;1.00;;;;;;5040202;28;20033;-60
2022/10/22 10:08:16;;;;;;;24.30;19.65;;;20.70;1.00;;;;;;5059366;28;20021;-60
2022/10/22 10:10:52;;;;;;;24.13;19.65;;;20.70;1.00;;;;;;5051830;28;20021;-60
2022/10/22 10:13:39;;;;;;;25.55;20.20;;;20.80;1.00;;;;;;5057567;28;20029;-60
2022/10/22 10:16:41;;;;;;;27.75;21.30;;;21.00;1.00;;;;;;5057013;28;20045;-60
2022/10/22 10:19:28;;;;;;;26.33;19.33;;;21.20;1.00;;;;;;5038040;28;20047;-60
2022/10/22 10:21:56;;;;;;;23.67;19.85;;;21.20;1.00;;;;;;5051759;28;20036;-60
2022/10/22 10:24:40;;;;;;;26.60;19.63;;;21.30;1.00;;;;;;5057729;28;20035;-61
2022/10/22 10:27:29;;;;;;;23.13;20.63;;;21.40;1.00;;;;;;5059042;28;20029;-61
2022/10/22 10:30:24;;;;;;;27.23;20.10;;;21.60;1.00;;;;;;5054394;28;20482;-61
2022/10/22 10:32:58;;;;;;;28.75;20.88;;;21.50;1.00;;;;;;5041521;28;20039;-61
2022/10/22 10:35:55;;;;;;;29.85;22.02;;;21.50;1.00;;;;;;5052524;28;20116;-61
2022/10/22 10:38:34;;;;;;;26.00;20.58;;;21.30;1.00;;;;;;5060369;28;20368;-60
2022/10/22 10:41:25;;;;;;;24.20;20.50;;;21.30;1.00;;;;;;5054172;28;20068;-60
2022/10/22 10:43:59;;;;;;;25.27;20.73;;;21.30;1.00;;;;;;5052238;28;20455;-61
2022/10/22 10:46:49;;;;;;;24.40;20.10;;;21.40;1.00;;;;;;5054419;28;20025;-61
2022/10/22 10:49:23;;;;;;;27.10;20.23;;;21.50;1.00;;;;;;5058113;28;20025;-61
2022/10/22 10:52:11;;;;;;;29.17;21.87;;;21.50;1.00;;;;;;5043848;28;20029;-61
2022/10/22 10:54:48;;;;;;;23.48;19.35;;;21.60;1.00;;;;;;5054722;28;20290;-60
2022/10/22 10:57:20;;;;;;;25.52;19.88;;;21.50;1.00;;;;;;5055884;28;20052;-60
2022/10/22 10:59:58;;;;;;;24.73;20.60;;;21.30;1.00;;;;;;5053884;28;20464;-61
2022/10/22 11:03:03;;;;;;;24.20;19.45;;;21.30;1.00;;;;;;5054791;28;20020;-60
2022/10/22 11:06:08;;;;;;;23.85;19.30;;;21.30;1.00;;;;;;5012457;28;20040;-59
2022/10/22 11:08:53;;;;;;;26.65;19.50;;;21.30;1.00;;;;;;5055587;28;20029;-58
2022/10/22 11:11:31;;;;;;;24.65;21.05;;;21.20;1.00;;;;;;5061789;28;20028;-58
2022/10/22 11:14:10;;;;;;;29.30;22.83;;;21.20;1.00;;;;;;5053854;28;20025;-58
2022/10/22 11:16:50;;;;;;;27.33;21.65;;;21.20;1.00;;;;;;5049173;28;20052;-59
2022/10/22 11:19:28;;;;;;;29.15;21.48;;;21.20;1.00;;;;;;5059982;28;20047;-58
2022/10/22 11:22:04;;;;;;;28.85;22.55;;;21.20;1.00;;;;;;5054965;28;20036;-59
2022/10/22 11:24:34;;;;;;;28.35;20.60;;;21.30;1.00;;;;;;5054309;28;20028;-59
2022/10/22 11:27:23;;;;;;;25.33;21.65;;;21.30;1.00;;;;;;5059578;28;20028;-59
2022/10/22 11:33:17;;;;;;;27.52;21.63;;;21.20;1.00;;;;;;5050565;28;20035;-59
2022/10/22 11:35:45;;;;;;;24.17;20.77;;;21.20;1.00;;;;;;5053430;28;20021;-58
2022/10/22 11:38:17;;;;;;;25.35;21.63;;;21.20;1.00;;;;;;5058639;28;20035;-58
2022/10/22 11:40:59;;;;;;;25.60;21.63;;;21.30;1.00;;;;;;5052526;28;20114;-59
2022/10/22 11:43:52;;;;;;;32.67;22.48;;;21.30;1.00;;;;;;5068741;28;20083;-54
2022/10/22 11:46:17;;;;;;;27.15;19.85;;;21.20;1.00;;;;;;5045970;28;20108;-60
2022/10/22 11:48:43;;;;;;;23.90;20.42;;;21.30;1.00;;;;;;5054308;28;20548;-57
2022/10/22 11:51:36;;;;;;;27.67;23.30;;;21.40;1.00;;;;;;5045530;28;20143;-56
2022/10/22 11:54:33;;;;;;;30.13;24.33;;;21.40;1.00;;;;;;5042297;28;20124;-56
2022/10/22 11:57:14;;;;;;;26.63;21.08;;;21.60;1.00;;;;;;5052294;28;20439;-57
2022/10/22 12:00:00;;;;;;;28.20;22.05;;;21.50;1.00;;;;;;5042208;28;20034;-56
2022/10/22 12:02:37;;;;;;;27.33;21.60;;;21.60;1.00;;;;;;5038172;28;20494;-56
2022/10/22 12:05:31;;;;;;;24.75;20.42;;;21.70;1.00;;;;;;5050553;28;20037;-56
2022/10/22 12:08:17;;;;;;;26.52;20.77;;;21.80;1.00;;;;;;5055807;28;20024;-56
2022/10/22 12:11:03;;;;;;;28.38;21.63;;;22.00;1.00;;;;;;5038301;28;20383;-55
2022/10/22 12:13:59;;;;;;;28.70;21.80;;;22.00;1.00;;;;;;5037440;28;20033;-56
2022/10/22 12:16:35;;;;;;;28.90;22.10;;;22.00;1.00;;;;;;5039801;28;20085;-55
2022/10/22 12:19:15;;;;;;;26.60;21.40;;;22.10;1.00;;;;;;5041283;28;20072;-52
2022/10/22 12:21:45;;;;;;;27.60;22.65;;;22.10;1.00;;;;;;5039470;28;20124;-56
2022/10/22 12:24:14;;;;;;;27.75;23.88;;;22.20;1.00;;;;;;5039294;28;20056;-57
2022/10/22 12:26:40;;;;;;;30.58;22.85;;;22.30;1.00;;;;;;5053222;28;20390;-57
2022/10/22 12:29:10;;;;;;;29.67;23.90;;;22.40;1.00;;;;;;5052788;28;20029;-57
2022/10/22 12:31:38;;;;;;;28.23;21.08;;;22.20;1.00;;;;;;5048077;28;20025;-56
2022/10/22 12:34:04;;;;;;;26.77;21.85;;;22.00;1.00;;;;;;5052656;28;20064;-56
2022/10/22 12:36:34;;;;;;;29.52;22.38;;;21.90;1.00;;;;;;5053307;28;20017;-56
2022/10/22 12:39:03;;;;;;;25.65;22.85;;;21.80;1.00;;;;;;5053257;28;20044;-55
2022/10/22 12:41:33;;;;;;;25.52;22.95;;;21.90;1.00;;;;;;5052611;28;20017;-55
2022/10/22 12:44:04;;;;;;;26.02;21.08;;;21.90;1.00;;;;;;5053535;28;20029;-53
2022/10/22 12:46:32;;;;;;;26.95;22.63;;;21.90;1.00;;;;;;5052370;28;20024;-55
2022/10/22 12:49:01;;;;;;;25.73;21.55;;;22.00;1.00;;;;;;5053514;28;20017;-51
2022/10/22 12:51:27;;;;;;;28.48;21.60;;;22.00;1.00;;;;;;5052316;28;20064;-54
2022/10/22 12:53:56;;;;;;;28.58;21.45;;;21.90;1.00;;;;;;5053384;28;20096;-54
2022/10/22 12:56:25;;;;;;;28.55;22.58;;;21.90;1.00;;;;;;5051606;28;20493;-52
2022/10/22 12:58:57;;;;;;;24.58;20.65;;;21.90;1.00;;;;;;5067677;28;20021;-53
2022/10/22 13:01:26;;;;;;;26.20;20.85;;;22.00;1.00;;;;;;5052347;28;20032;-54
2022/10/22 13:04:05;;;;;;;26.83;21.15;;;21.90;1.00;;;;;;5053282;28;20017;-51
2022/10/22 13:06:33;;;;;;;28.05;22.45;;;22.00;1.00;;;;;;5054675;28;20033;-53